createdAt,value
2018-02-05T00:02:26.271Z,5.35
2018-02-05T00:04:54.184Z,5.53
2018-02-05T00:07:22.036Z,4.35
2018-02-05T00:09:49.944Z,4.78
2018-02-05T00:12:17.813Z,4.90
2018-02-05T00:14:45.729Z,4.85
2018-02-05T00:17:14.398Z,4.22
2018-02-05T00:19:42.316Z,4.53
2018-02-05T00:22:15.176Z,4.53
2018-02-05T00:24:43.815Z,5.85
2018-02-05T00:27:11.757Z,5.00
2018-02-05T00:29:39.672Z,4.25
2018-02-05T00:32:07.550Z,4.93
2018-02-05T00:34:35.470Z,3.97
2018-02-05T00:37:03.334Z,4.62
2018-02-05T00:39:31.239Z,4.78
2018-02-05T00:41:59.168Z,5.57
2018-02-05T00:44:29.115Z,5.37
2018-02-05T00:46:57.747Z,4.35
2018-02-05T00:49:25.653Z,4.82
2018-02-05T00:51:53.516Z,5.65
2018-02-05T00:54:21.444Z,4.53
2018-02-05T00:56:49.308Z,5.00
2018-02-05T00:59:17.229Z,3.97
2018-02-05T01:01:45.285Z,4.70
2018-02-05T01:04:13.211Z,4.28
2018-02-05T01:06:41.086Z,4.35
2018-02-05T01:09:09.008Z,4.43
2018-02-05T01:11:36.899Z,4.70
2018-02-05T01:14:04.821Z,5.28
2018-02-05T01:16:32.688Z,4.20
2018-02-05T01:19:00.599Z,4.37
2018-02-05T01:21:29.243Z,5.28
2018-02-05T01:23:57.174Z,4.60
2018-02-05T01:26:25.033Z,5.10
2018-02-05T01:28:52.965Z,4.80
2018-02-05T01:31:20.835Z,4.12
2018-02-05T01:33:48.703Z,5.40
2018-02-05T01:36:16.658Z,5.45
2018-02-05T01:38:44.524Z,5.40
2018-02-05T01:41:12.466Z,5.05
2018-02-05T01:43:40.318Z,4.70
2018-02-05T01:46:08.227Z,6.22
2018-02-05T01:48:36.088Z,5.35
2018-02-05T01:51:03.995Z,5.50
2018-02-05T01:53:32.955Z,5.47
2018-02-05T01:56:00.895Z,5.72
2018-02-05T01:58:28.837Z,6.07
2018-02-05T02:00:57.530Z,6.03
2018-02-05T02:03:26.164Z,5.07
2018-02-05T02:05:54.064Z,6.55
2018-02-05T02:08:21.941Z,9.52
2018-02-05T02:10:49.872Z,7.18
2018-02-05T02:13:17.729Z,9.02
2018-02-05T02:15:45.640Z,6.62
2018-02-05T02:18:13.496Z,5.80
2018-02-05T02:20:41.423Z,5.35
2018-02-05T02:23:09.526Z,4.90
2018-02-05T02:25:37.462Z,6.95
2018-02-05T02:28:05.328Z,5.53
2018-02-05T02:30:33.236Z,5.80
2018-02-05T02:33:01.113Z,5.43
2018-02-05T02:35:29.028Z,5.43
2018-02-05T02:37:57.025Z,5.45
2018-02-05T02:40:24.939Z,6.28
2018-02-05T02:42:52.816Z,6.47
2018-02-05T02:45:20.843Z,6.07
2018-02-05T02:47:48.737Z,6.25
2018-02-05T02:50:16.659Z,6.43
2018-02-05T02:52:48.545Z,6.05
2018-02-05T02:55:16.477Z,6.55
2018-02-05T02:57:44.343Z,6.20
2018-02-05T03:00:12.277Z,6.55
2018-02-05T03:02:40.148Z,6.65
2018-02-05T03:05:08.070Z,6.85
2018-02-05T03:07:35.933Z,6.35
2018-02-05T03:10:03.872Z,6.37
2018-02-05T03:12:32.500Z,6.87
2018-02-05T03:15:00.420Z,7.12
2018-02-05T03:17:29.047Z,7.05
2018-02-05T03:19:56.923Z,7.30
2018-02-05T03:22:28.898Z,5.72
2018-02-05T03:24:56.784Z,6.62
2018-02-05T03:27:24.717Z,6.65
2018-02-05T03:29:52.601Z,6.70
2018-02-05T03:32:20.510Z,6.37
2018-02-05T03:34:49.162Z,7.68
2018-02-05T03:37:17.132Z,7.68
2018-02-05T03:39:45.006Z,7.60
2018-02-05T03:42:12.937Z,6.68
2018-02-05T03:44:40.814Z,7.43
2018-02-05T03:47:08.744Z,6.30
2018-02-05T03:49:36.614Z,6.70
2018-02-05T03:52:04.549Z,6.65
2018-02-05T03:54:32.429Z,7.03
2018-02-05T03:57:03.930Z,6.55
2018-02-05T03:59:35.187Z,6.60
2018-02-05T04:02:06.520Z,6.97
2018-02-05T04:04:37.797Z,7.25
2018-02-05T04:07:14.527Z,7.62
2018-02-05T04:09:42.620Z,7.43
2018-02-05T04:12:10.557Z,7.60
2018-02-05T04:14:39.259Z,7.40
2018-02-05T04:17:07.198Z,7.95
2018-02-05T04:19:35.129Z,8.77
2018-02-05T04:22:03.104Z,7.80
2018-02-05T04:24:30.966Z,7.25
2018-02-05T04:26:58.837Z,7.53
2018-02-05T04:29:26.752Z,6.87
2018-02-05T04:31:54.616Z,6.55
2018-02-05T04:34:22.540Z,7.35
2018-02-05T04:36:51.181Z,7.72
2018-02-05T04:39:19.108Z,7.30
2018-02-05T04:41:47.098Z,7.87
2018-02-05T04:44:15.045Z,7.55
2018-02-05T04:46:42.928Z,8.13
2018-02-05T04:49:10.884Z,7.37
2018-02-05T04:51:38.765Z,7.47
2018-02-05T04:54:06.697Z,6.97
2018-02-05T04:56:34.579Z,7.90
2018-02-05T04:59:02.516Z,7.95
2018-02-05T05:01:30.396Z,7.75
2018-02-05T05:03:58.331Z,7.62
2018-02-05T05:06:26.210Z,7.35
2018-02-05T05:08:54.081Z,6.80
2018-02-05T05:11:22.760Z,6.65
2018-02-05T05:13:50.650Z,7.55
2018-02-05T05:16:18.594Z,7.22
2018-02-05T05:18:46.465Z,6.12
2018-02-05T05:21:14.398Z,8.40
2018-02-05T05:23:45.764Z,6.72
2018-02-05T05:26:16.226Z,8.38
2018-02-05T05:28:47.657Z,7.53
2018-02-05T05:31:19.197Z,7.65
2018-02-05T05:33:49.632Z,7.50
2018-02-05T05:36:22.704Z,7.85
2018-02-05T05:38:54.430Z,7.30
2018-02-05T05:41:24.915Z,7.68
2018-02-05T05:43:56.228Z,7.40
2018-02-05T05:46:27.346Z,7.60
2018-02-05T05:49:00.109Z,7.87
2018-02-05T05:51:31.397Z,7.57
2018-02-05T05:54:02.564Z,7.00
2018-02-05T05:56:34.993Z,7.50
2018-02-05T05:59:06.042Z,7.95
2018-02-05T06:01:36.613Z,8.00
2018-02-05T06:04:06.644Z,8.20
2018-02-05T06:06:35.614Z,8.35
2018-02-05T06:09:04.374Z,8.98
2018-02-05T06:11:32.338Z,8.32
2018-02-05T06:14:00.216Z,7.90
2018-02-05T06:16:28.143Z,6.87
2018-02-05T06:18:56.067Z,7.30
2018-02-05T06:21:23.987Z,8.57
2018-02-05T06:23:55.228Z,8.70
2018-02-05T06:26:23.176Z,9.55
2018-02-05T06:28:51.047Z,8.25
2018-02-05T06:31:18.976Z,9.45
2018-02-05T06:33:46.855Z,8.20
2018-02-05T06:36:14.794Z,8.57
2018-02-05T06:38:42.670Z,8.30
2018-02-05T06:41:10.609Z,8.30
2018-02-05T06:43:38.496Z,8.98
2018-02-05T06:46:06.427Z,9.18
2018-02-05T06:48:34.309Z,11.12
2018-02-05T06:51:14.070Z,10.93
2018-02-05T06:53:53.582Z,8.77
2018-02-05T06:56:24.368Z,9.32
2018-02-05T06:58:52.249Z,7.85
2018-02-05T07:01:20.198Z,10.13
2018-02-05T07:03:48.845Z,8.85
2018-02-05T07:06:16.781Z,8.82
2018-02-05T07:08:44.663Z,9.13
2018-02-05T07:11:12.591Z,9.02
2018-02-05T07:13:41.249Z,8.20
2018-02-05T07:16:09.180Z,9.40
2018-02-05T07:18:37.086Z,9.05
2018-02-05T07:21:05.031Z,7.85
2018-02-05T07:23:32.924Z,8.18
2018-02-05T07:26:00.852Z,8.75
2018-02-05T07:28:28.735Z,8.75
2018-02-05T07:30:56.666Z,8.35
2018-02-05T07:33:24.541Z,8.85
2018-02-05T07:35:52.519Z,8.68
2018-02-05T07:38:20.400Z,7.68
2018-02-05T07:40:48.325Z,8.60
2018-02-05T07:43:16.266Z,8.38
2018-02-05T07:45:44.144Z,8.18
2018-02-05T07:48:12.073Z,8.65
2018-02-05T07:50:39.951Z,7.87
2018-02-05T07:53:08.000Z,9.13
2018-02-05T07:55:35.903Z,7.28
2018-02-05T07:58:03.830Z,9.13
2018-02-05T08:00:31.714Z,8.50
2018-02-05T08:02:59.643Z,8.50
2018-02-05T08:05:27.528Z,8.77
2018-02-05T08:07:55.466Z,9.98
2018-02-05T08:10:23.330Z,9.07
2018-02-05T08:12:51.244Z,8.00
2018-02-05T08:15:19.130Z,7.20
2018-02-05T08:17:47.067Z,8.05
2018-02-05T08:20:15.695Z,7.75
2018-02-05T08:22:43.640Z,6.97
2018-02-05T08:25:11.504Z,6.70
2018-02-05T08:27:39.414Z,8.02
2018-02-05T08:30:07.276Z,8.90
2018-02-05T08:32:35.194Z,10.48
2018-02-05T08:35:03.070Z,8.43
2018-02-05T08:37:31.751Z,7.78
2018-02-05T08:40:00.405Z,7.95
2018-02-05T08:42:28.313Z,7.28
2018-02-05T08:44:56.228Z,7.93
2018-02-05T08:47:24.138Z,7.43
2018-02-05T08:49:51.997Z,7.72
2018-02-05T08:52:22.035Z,8.25
2018-02-05T08:54:50.670Z,7.62
2018-02-05T08:57:18.585Z,7.65
2018-02-05T08:59:46.453Z,7.55
2018-02-05T09:02:14.375Z,8.45
2018-02-05T09:04:42.236Z,7.20
2018-02-05T09:07:10.160Z,7.90
2018-02-05T09:09:38.787Z,7.77
2018-02-05T09:12:06.695Z,8.00
2018-02-05T09:14:34.570Z,8.27
2018-02-05T09:17:02.486Z,8.50
2018-02-05T09:19:30.412Z,8.80
2018-02-05T09:21:58.371Z,8.00
2018-02-05T09:24:26.232Z,7.07
2018-02-05T09:26:54.143Z,6.90
2018-02-05T09:29:22.014Z,7.27
2018-02-05T09:31:49.920Z,6.73
2018-02-05T09:34:17.780Z,6.57
2018-02-05T09:36:45.701Z,7.33
2018-02-05T09:39:14.371Z,8.13
2018-02-05T09:41:42.313Z,8.20
2018-02-05T09:44:10.187Z,9.07
2018-02-05T09:46:38.117Z,7.07
2018-02-05T09:49:05.998Z,6.65
2018-02-05T09:51:33.928Z,6.57
2018-02-05T09:54:02.983Z,7.07
2018-02-05T09:56:30.901Z,7.47
2018-02-05T09:58:58.834Z,7.93
2018-02-05T10:01:26.865Z,7.47
2018-02-05T10:03:55.291Z,7.47
2018-02-05T10:06:27.787Z,6.97
2018-02-05T10:08:55.792Z,7.10
2018-02-05T10:11:23.705Z,6.37
2018-02-05T10:13:51.789Z,6.18
2018-02-05T10:16:19.671Z,6.50
2018-02-05T10:18:47.589Z,7.37
2018-02-05T10:21:15.715Z,6.85
2018-02-05T10:23:44.407Z,7.20
2018-02-05T10:26:12.288Z,7.68
2018-02-05T10:28:40.228Z,6.83
2018-02-05T10:31:08.104Z,7.20
2018-02-05T10:33:36.118Z,5.97
2018-02-05T10:36:04.047Z,6.27
2018-02-05T10:38:32.747Z,6.77
2018-02-05T10:41:00.629Z,6.83
2018-02-05T10:43:28.543Z,6.37
2018-02-05T10:45:56.424Z,6.20
2018-02-05T10:48:24.342Z,6.60
2018-02-05T10:50:52.222Z,5.50
2018-02-05T10:53:20.169Z,5.50
2018-02-05T10:55:48.050Z,7.43
2018-02-05T10:58:15.983Z,5.77
2018-02-05T11:00:43.929Z,6.67
2018-02-05T11:03:12.052Z,5.37
2018-02-05T11:05:39.973Z,5.00
2018-02-05T11:08:07.906Z,6.47
2018-02-05T11:10:35.792Z,5.90
2018-02-05T11:13:03.799Z,5.63
2018-02-05T11:15:31.694Z,5.70
2018-02-05T11:17:59.624Z,5.70
2018-02-05T11:20:27.517Z,5.20
2018-02-05T11:22:55.465Z,5.13
2018-02-05T11:25:23.351Z,5.70
2018-02-05T11:27:52.052Z,6.73
2018-02-05T11:30:20.131Z,5.77
2018-02-05T11:32:51.672Z,5.30
2018-02-05T11:35:19.595Z,4.70
2018-02-05T11:37:47.534Z,5.23
2018-02-05T11:40:15.410Z,4.90
2018-02-05T11:42:43.334Z,5.20
2018-02-05T11:45:11.973Z,4.60
2018-02-05T11:47:39.908Z,5.20
2018-02-05T11:50:07.789Z,5.40
2018-02-05T11:52:35.802Z,5.07
2018-02-05T11:55:03.699Z,5.67
2018-02-05T11:57:32.400Z,5.50
2018-02-05T12:00:00.280Z,5.00
2018-02-05T12:02:31.638Z,6.00
2018-02-05T12:04:59.530Z,5.60
2018-02-05T12:07:27.456Z,5.83
2018-02-05T12:09:55.321Z,5.50
2018-02-05T12:12:23.257Z,4.90
2018-02-05T12:14:51.143Z,5.03
2018-02-05T12:17:19.076Z,5.00
2018-02-05T12:19:47.016Z,5.20
2018-02-05T12:22:14.965Z,5.80
2018-02-05T12:24:43.620Z,6.30
2018-02-05T12:27:11.560Z,6.47
2018-02-05T12:29:39.444Z,5.67
2018-02-05T12:32:07.636Z,5.07
2018-02-05T12:34:35.516Z,5.40
2018-02-05T12:37:04.222Z,4.50
2018-02-05T12:39:32.878Z,5.87
2018-02-05T12:42:00.824Z,5.20
2018-02-05T12:44:28.772Z,5.63
2018-02-05T12:46:57.411Z,5.57
2018-02-05T12:49:25.338Z,5.50
2018-02-05T12:51:53.221Z,4.77
2018-02-05T12:54:21.205Z,6.03
2018-02-05T12:56:49.135Z,6.60
2018-02-05T12:59:17.161Z,6.87
2018-02-05T13:01:46.553Z,7.03
2018-02-05T13:04:19.974Z,8.57
2018-02-05T13:06:48.593Z,5.50
2018-02-05T13:09:16.528Z,5.80
2018-02-05T13:11:44.421Z,7.07
2018-02-05T13:14:12.351Z,6.50
2018-02-05T13:16:40.325Z,6.20
2018-02-05T13:19:08.287Z,5.10
2018-02-05T13:21:40.834Z,7.03
2018-02-05T13:24:08.994Z,8.93
2018-02-05T13:26:36.882Z,6.57
2018-02-05T13:29:04.823Z,4.93
2018-02-05T13:31:32.709Z,4.95
2018-02-05T13:34:00.664Z,6.53
2018-02-05T13:36:28.570Z,6.00
2018-02-05T13:38:56.554Z,5.75
2018-02-05T13:41:24.444Z,7.32
2018-02-05T13:43:53.380Z,7.07
2018-02-05T13:46:21.301Z,6.70
2018-02-05T13:48:49.312Z,7.23
2018-02-05T13:51:17.225Z,6.27
2018-02-05T13:53:45.718Z,6.45
2018-02-05T13:56:13.595Z,6.10
2018-02-05T13:58:42.298Z,5.70
2018-02-05T14:01:10.176Z,6.70
2018-02-05T14:03:38.100Z,7.07
2018-02-05T14:06:05.980Z,6.22
2018-02-05T14:08:33.938Z,5.85
2018-02-05T14:11:01.813Z,7.12
2018-02-05T14:13:29.924Z,6.85
2018-02-05T14:15:57.953Z,6.28
2018-02-05T14:18:28.125Z,6.30
2018-02-05T14:20:56.217Z,6.60
2018-02-05T14:23:24.179Z,6.75
2018-02-05T14:25:52.060Z,7.70
2018-02-05T14:28:20.015Z,6.62
2018-02-05T14:30:47.908Z,6.03
2018-02-05T14:33:18.955Z,6.85
2018-02-05T14:35:47.115Z,5.97
2018-02-05T14:38:15.038Z,7.25
2018-02-05T14:40:43.655Z,5.93
2018-02-05T14:43:11.938Z,6.25
2018-02-05T14:45:40.432Z,6.53
2018-02-05T14:48:08.380Z,6.37
2018-02-05T14:50:36.735Z,6.53
2018-02-05T14:53:06.975Z,6.55
2018-02-05T14:55:36.213Z,6.43
2018-02-05T14:58:04.187Z,6.45
2018-02-05T15:00:32.697Z,5.82
2018-02-05T15:03:02.316Z,5.57
2018-02-05T15:05:30.235Z,5.55
2018-02-05T15:07:59.273Z,6.57
2018-02-05T15:10:27.182Z,6.50
2018-02-05T15:12:55.337Z,6.50
2018-02-05T15:15:23.238Z,5.80
2018-02-05T15:17:51.194Z,6.40
2018-02-05T15:20:19.068Z,5.82
2018-02-05T15:22:46.991Z,5.93
2018-02-05T15:25:15.649Z,7.28
2018-02-05T15:27:43.539Z,6.05
2018-02-05T15:30:11.477Z,5.60
2018-02-05T15:32:39.367Z,6.40
2018-02-05T15:35:07.377Z,6.93
2018-02-05T15:37:35.257Z,6.40
2018-02-05T15:40:03.180Z,5.75
2018-02-05T15:42:31.245Z,5.97
2018-02-05T15:44:59.180Z,6.37
2018-02-05T15:47:27.066Z,5.80
2018-02-05T15:49:55.001Z,6.07
2018-02-05T15:52:28.692Z,6.60
2018-02-05T15:54:56.632Z,7.68
2018-02-05T15:57:24.516Z,6.05
2018-02-05T15:59:52.461Z,6.53
2018-02-05T16:02:20.352Z,9.20
2018-02-05T16:04:48.282Z,6.60
2018-02-05T16:07:16.171Z,8.88
2018-02-05T16:09:44.120Z,8.90
2018-02-05T16:12:12.119Z,8.35
2018-02-05T16:14:40.050Z,5.95
2018-02-05T16:17:07.935Z,6.05
2018-02-05T16:19:35.878Z,9.00
2018-02-05T16:22:03.775Z,9.68
2018-02-05T16:24:31.723Z,6.90
2018-02-05T16:27:00.437Z,8.13
2018-02-05T16:29:28.384Z,6.35
2018-02-05T16:31:56.351Z,6.80
2018-02-05T16:34:24.286Z,16.95
2018-02-05T16:36:52.172Z,11.20
2018-02-05T16:39:20.122Z,16.33
2018-02-05T16:41:48.061Z,6.40
2018-02-05T16:44:16.004Z,18.70
2018-02-05T16:46:43.908Z,9.73
2018-02-05T16:49:11.828Z,6.90
2018-02-05T16:51:39.725Z,11.00
2018-02-05T16:54:07.703Z,6.45
2018-02-05T16:56:35.618Z,7.68
2018-02-05T16:59:03.624Z,6.37
2018-02-05T17:01:31.582Z,6.93
2018-02-05T17:03:59.602Z,14.25
2018-02-05T17:06:27.919Z,7.78
2018-02-05T17:08:55.907Z,6.93
2018-02-05T17:11:23.789Z,6.47
2018-02-05T17:13:51.720Z,8.85
2018-02-05T17:16:19.618Z,13.27
2018-02-05T17:18:47.566Z,10.55
2018-02-05T17:21:15.476Z,6.95
2018-02-05T17:23:43.441Z,8.32
2018-02-05T17:26:11.334Z,7.07
2018-02-05T17:28:39.258Z,8.90
2018-02-05T17:31:07.242Z,8.23
2018-02-05T17:33:36.364Z,7.45
2018-02-05T17:36:05.134Z,7.57
2018-02-05T17:38:33.046Z,7.78
2018-02-05T17:41:01.771Z,8.23
2018-02-05T17:43:29.679Z,7.07
2018-02-05T17:45:58.583Z,6.65
2018-02-05T17:48:27.315Z,7.18
2018-02-05T17:50:55.274Z,7.20
2018-02-05T17:53:24.018Z,8.23
2018-02-05T17:55:51.963Z,7.15
2018-02-05T17:58:19.880Z,6.57
2018-02-05T18:00:48.609Z,7.18
2018-02-05T18:03:16.618Z,7.22
2018-02-05T18:05:44.566Z,9.25
2018-02-05T18:08:12.462Z,8.05
2018-02-05T18:10:41.436Z,7.47
2018-02-05T18:13:09.399Z,8.02
2018-02-05T18:15:37.290Z,8.80
2018-02-05T18:18:06.610Z,6.95
2018-02-05T18:20:34.626Z,7.78
2018-02-05T18:23:02.714Z,8.00
2018-02-05T18:25:30.732Z,7.32
2018-02-05T18:27:58.675Z,7.75
2018-02-05T18:30:26.614Z,7.78
2018-02-05T18:32:55.726Z,8.13
2018-02-05T18:35:23.684Z,9.02
2018-02-05T18:37:51.560Z,8.82
2018-02-05T18:40:19.632Z,8.20
2018-02-05T18:42:47.594Z,11.23
2018-02-05T18:45:15.541Z,10.02
2018-02-05T18:47:43.476Z,9.98
2018-02-05T18:50:12.144Z,11.12
2018-02-05T18:52:40.082Z,10.98
2018-02-05T18:55:07.954Z,9.70
2018-02-05T18:57:35.902Z,10.15
2018-02-05T19:00:15.511Z,8.63
2018-02-05T19:02:44.231Z,9.85
2018-02-05T19:05:12.125Z,9.35
2018-02-05T19:07:40.014Z,9.02
2018-02-05T19:10:07.964Z,10.70
2018-02-05T19:12:35.896Z,10.00
2018-02-05T19:15:03.900Z,10.32
2018-02-05T19:17:31.798Z,11.05
2018-02-05T19:19:59.767Z,9.00
2018-02-05T19:22:27.773Z,8.88
2018-02-05T19:24:55.708Z,9.70
2018-02-05T19:27:23.590Z,11.73
2018-02-05T19:29:52.318Z,8.93
2018-02-05T19:32:20.261Z,8.60
2018-02-05T19:34:48.209Z,9.27
2018-02-05T19:37:16.112Z,9.65
2018-02-05T19:39:44.054Z,10.75
2018-02-05T19:42:13.976Z,10.38
2018-02-05T19:44:42.698Z,9.90
2018-02-05T19:47:10.582Z,12.37
2018-02-05T19:49:39.076Z,13.75
2018-02-05T19:52:06.946Z,15.07
2018-02-05T19:54:37.884Z,14.50
2018-02-05T19:57:05.773Z,10.02
2018-02-05T19:59:33.741Z,17.95
2018-02-05T20:02:01.628Z,10.43
2018-02-05T20:04:30.331Z,13.98
2018-02-05T20:06:58.288Z,13.70
2018-02-05T20:09:27.559Z,11.63
2018-02-05T20:11:55.783Z,13.50
2018-02-05T20:14:23.735Z,13.02
2018-02-05T20:16:52.484Z,14.68
2018-02-05T20:19:20.469Z,14.95
2018-02-05T20:21:48.400Z,13.80
2018-02-05T20:24:16.348Z,14.00
2018-02-05T20:26:44.340Z,14.10
2018-02-05T20:29:12.284Z,12.43
2018-02-05T20:31:40.173Z,10.73
2018-02-05T20:34:08.135Z,17.40
2018-02-05T20:36:36.045Z,12.52
2018-02-05T20:39:04.122Z,11.15
2018-02-05T20:41:32.001Z,10.65
2018-02-05T20:43:59.945Z,14.73
2018-02-05T20:46:27.880Z,10.55
2018-02-05T20:48:55.847Z,20.92
2018-02-05T20:51:25.930Z,14.52
2018-02-05T20:53:55.069Z,11.48
2018-02-05T20:56:22.953Z,20.55
2018-02-05T20:58:50.890Z,16.08
2018-02-05T21:01:18.771Z,14.30
2018-02-05T21:03:46.879Z,12.32
2018-02-05T21:06:14.765Z,17.52
2018-02-05T21:08:45.134Z,13.48
2018-02-05T21:11:13.225Z,16.25
2018-02-05T21:13:41.168Z,19.80
2018-02-05T21:16:09.827Z,23.12
2018-02-05T21:18:37.762Z,21.23
2018-02-05T21:21:05.704Z,21.35
2018-02-05T21:23:33.671Z,14.80
2018-02-05T21:26:01.604Z,13.62
2018-02-05T21:28:29.546Z,12.05
2018-02-05T21:30:57.440Z,13.30
2018-02-05T21:33:25.604Z,14.38
2018-02-05T21:35:53.496Z,16.30
2018-02-05T21:38:21.387Z,22.20
2018-02-05T21:40:49.354Z,16.70
2018-02-05T21:43:17.234Z,18.17
2018-02-05T21:45:45.209Z,12.20
2018-02-05T21:48:13.867Z,11.95
2018-02-05T21:50:42.579Z,18.40
2018-02-05T21:53:10.484Z,12.70
2018-02-05T21:55:38.760Z,18.67
2018-02-05T21:58:06.733Z,15.70
2018-02-05T22:00:34.967Z,12.73
2018-02-05T22:03:03.010Z,12.30
2018-02-05T22:05:30.996Z,12.63
2018-02-05T22:07:58.928Z,18.92
2018-02-05T22:10:26.884Z,11.80
2018-02-05T22:12:54.795Z,12.93
2018-02-05T22:15:23.563Z,11.02
2018-02-05T22:17:51.444Z,13.20
2018-02-05T22:20:21.391Z,10.05
2018-02-05T22:22:49.294Z,12.23
2018-02-05T22:25:17.248Z,12.05
2018-02-05T22:27:45.145Z,11.00
2018-02-05T22:30:13.135Z,10.48
2018-02-05T22:32:41.183Z,10.13
2018-02-05T22:35:09.122Z,12.30
2018-02-05T22:37:37.052Z,10.93
2018-02-05T22:40:05.006Z,11.88
2018-02-05T22:42:32.950Z,10.65
2018-02-05T22:45:00.904Z,9.77
2018-02-05T22:47:28.807Z,10.45
2018-02-05T22:49:56.764Z,11.23
2018-02-05T22:52:24.676Z,10.95
2018-02-05T22:54:53.386Z,12.13
2018-02-05T22:57:21.284Z,9.55
2018-02-05T22:59:49.263Z,10.50
2018-02-05T23:02:19.199Z,10.80
2018-02-05T23:04:47.141Z,10.15
2018-02-05T23:07:15.044Z,9.25
2018-02-05T23:09:42.975Z,10.68
2018-02-05T23:12:10.869Z,10.63
2018-02-05T23:14:38.810Z,10.70
2018-02-05T23:17:06.693Z,11.00
2018-02-05T23:19:34.638Z,10.65
2018-02-05T23:22:02.529Z,10.38
2018-02-05T23:24:30.473Z,10.68
2018-02-05T23:26:58.385Z,11.02
2018-02-05T23:29:26.321Z,11.10
2018-02-05T23:31:55.473Z,9.10
2018-02-05T23:34:24.182Z,10.40
2018-02-05T23:36:52.128Z,10.32
2018-02-05T23:39:21.013Z,8.48
2018-02-05T23:41:48.897Z,9.90
2018-02-05T23:44:17.610Z,9.27
2018-02-05T23:46:45.486Z,9.55
2018-02-05T23:49:13.432Z,10.60
2018-02-05T23:51:41.317Z,9.93
2018-02-05T23:54:09.357Z,8.60
2018-02-05T23:56:37.253Z,9.00
2018-02-05T23:59:05.197Z,9.18
